sensor_id;sensor_type;location;lat;lon;timestamp;P1;durP1;ratioP1;P2;durP2;ratioP2
20810;SDS011;10566;52.928;10.522;2023-04-25T00:00:28;27.80;;;11.90;;
20810;SDS011;10566;52.928;10.522;2023-04-25T00:02:54;27.27;;;11.93;;
20810;SDS011;10566;52.928;10.522;2023-04-25T00:05:24;27.87;;;11.67;;
20810;SDS011;10566;52.928;10.522;2023-04-25T00:07:50;18.97;;;10.43;;
20810;SDS011;10566;52.928;10.522;2023-04-25T00:10:16;19.33;;;9.83;;
20810;SDS011;10566;52.928;10.522;2023-04-25T00:12:42;22.70;;;10.97;;
20810;SDS011;10566;52.928;10.522;2023-04-25T00:15:09;21.00;;;11.03;;
20810;SDS011;10566;52.928;10.522;2023-04-25T00:17:35;19.67;;;10.10;;
20810;SDS011;10566;52.928;10.522;2023-04-25T00:20:03;23.73;;;11.00;;
20810;SDS011;10566;52.928;10.522;2023-04-25T00:22:34;23.00;;;11.27;;
20810;SDS011;10566;52.928;10.522;2023-04-25T00:25:02;18.53;;;10.00;;
20810;SDS011;10566;52.928;10.522;2023-04-25T00:27:28;18.30;;;9.47;;
20810;SDS011;10566;52.928;10.522;2023-04-25T00:29:54;14.87;;;8.27;;
20810;SDS011;10566;52.928;10.522;2023-04-25T00:32:20;12.03;;;6.93;;
20810;SDS011;10566;52.928;10.522;2023-04-25T00:34:46;13.50;;;6.13;;
20810;SDS011;10566;52.928;10.522;2023-04-25T00:37:12;13.57;;;5.47;;
20810;SDS011;10566;52.928;10.522;2023-04-25T00:39:38;11.53;;;5.17;;
20810;SDS011;10566;52.928;10.522;2023-04-25T00:42:05;13.30;;;5.57;;
20810;SDS011;10566;52.928;10.522;2023-04-25T00:44:31;13.17;;;5.20;;
20810;SDS011;10566;52.928;10.522;2023-04-25T00:46:57;11.93;;;5.13;;
20810;SDS011;10566;52.928;10.522;2023-04-25T00:49:23;10.27;;;5.30;;
20810;SDS011;10566;52.928;10.522;2023-04-25T00:51:49;13.00;;;5.43;;
20810;SDS011;10566;52.928;10.522;2023-04-25T00:54:15;11.97;;;5.13;;
20810;SDS011;10566;52.928;10.522;2023-04-25T00:56:42;11.97;;;4.73;;
20810;SDS011;10566;52.928;10.522;2023-04-25T00:59:09;10.90;;;5.20;;
20810;SDS011;10566;52.928;10.522;2023-04-25T01:01:35;12.03;;;5.40;;
20810;SDS011;10566;52.928;10.522;2023-04-25T01:04:02;15.07;;;5.90;;
20810;SDS011;10566;52.928;10.522;2023-04-25T01:06:28;14.63;;;5.50;;
20810;SDS011;10566;52.928;10.522;2023-04-25T01:08:55;13.50;;;5.87;;
20810;SDS011;10566;52.928;10.522;2023-04-25T01:11:21;14.27;;;5.30;;
20810;SDS011;10566;52.928;10.522;2023-04-25T01:13:47;14.63;;;6.60;;
20810;SDS011;10566;52.928;10.522;2023-04-25T01:16:13;14.80;;;6.90;;
20810;SDS011;10566;52.928;10.522;2023-04-25T01:18:39;13.40;;;5.87;;
20810;SDS011;10566;52.928;10.522;2023-04-25T01:21:09;11.40;;;5.17;;
20810;SDS011;10566;52.928;10.522;2023-04-25T01:23:36;12.03;;;5.83;;
20810;SDS011;10566;52.928;10.522;2023-04-25T01:26:02;13.10;;;5.33;;
20810;SDS011;10566;52.928;10.522;2023-04-25T01:28:28;18.10;;;6.17;;
20810;SDS011;10566;52.928;10.522;2023-04-25T01:30:55;14.57;;;5.77;;
20810;SDS011;10566;52.928;10.522;2023-04-25T01:33:21;10.60;;;5.77;;
20810;SDS011;10566;52.928;10.522;2023-04-25T01:35:48;13.80;;;5.70;;
20810;SDS011;10566;52.928;10.522;2023-04-25T01:38:14;12.70;;;5.70;;
20810;SDS011;10566;52.928;10.522;2023-04-25T01:40:40;12.37;;;5.90;;
20810;SDS011;10566;52.928;10.522;2023-04-25T01:43:09;12.60;;;5.70;;
20810;SDS011;10566;52.928;10.522;2023-04-25T01:45:37;15.97;;;5.97;;
20810;SDS011;10566;52.928;10.522;2023-04-25T01:48:06;10.90;;;5.20;;
20810;SDS011;10566;52.928;10.522;2023-04-25T01:50:32;15.47;;;6.10;;
20810;SDS011;10566;52.928;10.522;2023-04-25T01:52:58;13.20;;;5.83;;
20810;SDS011;10566;52.928;10.522;2023-04-25T01:55:24;13.87;;;6.83;;
20810;SDS011;10566;52.928;10.522;2023-04-25T01:57:51;11.97;;;5.90;;
20810;SDS011;10566;52.928;10.522;2023-04-25T02:00:17;13.37;;;6.10;;
20810;SDS011;10566;52.928;10.522;2023-04-25T02:02:43;15.03;;;5.67;;
20810;SDS011;10566;52.928;10.522;2023-04-25T02:05:09;13.63;;;5.90;;
20810;SDS011;10566;52.928;10.522;2023-04-25T02:07:35;12.13;;;5.53;;
20810;SDS011;10566;52.928;10.522;2023-04-25T02:10:01;9.77;;;5.00;;
20810;SDS011;10566;52.928;10.522;2023-04-25T02:12:27;15.60;;;5.37;;
20810;SDS011;10566;52.928;10.522;2023-04-25T02:14:53;10.50;;;4.93;;
20810;SDS011;10566;52.928;10.522;2023-04-25T02:17:19;18.43;;;5.00;;
20810;SDS011;10566;52.928;10.522;2023-04-25T02:19:46;18.90;;;4.87;;
20810;SDS011;10566;52.928;10.522;2023-04-25T02:22:12;13.87;;;4.50;;
20810;SDS011;10566;52.928;10.522;2023-04-25T02:24:38;15.90;;;4.80;;
20810;SDS011;10566;52.928;10.522;2023-04-25T02:27:04;18.33;;;4.53;;
20810;SDS011;10566;52.928;10.522;2023-04-25T02:29:30;17.47;;;4.63;;
20810;SDS011;10566;52.928;10.522;2023-04-25T02:31:56;19.43;;;4.80;;
20810;SDS011;10566;52.928;10.522;2023-04-25T02:34:23;15.37;;;4.40;;
20810;SDS011;10566;52.928;10.522;2023-04-25T02:36:48;20.73;;;4.70;;
20810;SDS011;10566;52.928;10.522;2023-04-25T02:39:16;23.50;;;4.77;;
20810;SDS011;10566;52.928;10.522;2023-04-25T02:41:41;21.27;;;4.37;;
20810;SDS011;10566;52.928;10.522;2023-04-25T02:44:07;17.90;;;4.90;;
20810;SDS011;10566;52.928;10.522;2023-04-25T02:46:33;23.70;;;5.00;;
20810;SDS011;10566;52.928;10.522;2023-04-25T02:48:59;19.93;;;4.70;;
20810;SDS011;10566;52.928;10.522;2023-04-25T02:51:25;27.43;;;5.37;;
20810;SDS011;10566;52.928;10.522;2023-04-25T02:53:51;22.60;;;5.07;;
20810;SDS011;10566;52.928;10.522;2023-04-25T02:56:17;26.27;;;4.90;;
20810;SDS011;10566;52.928;10.522;2023-04-25T02:58:43;25.17;;;5.10;;
20810;SDS011;10566;52.928;10.522;2023-04-25T03:01:10;25.43;;;4.87;;
20810;SDS011;10566;52.928;10.522;2023-04-25T03:03:36;28.17;;;5.57;;
20810;SDS011;10566;52.928;10.522;2023-04-25T03:06:02;27.00;;;5.60;;
20810;SDS011;10566;52.928;10.522;2023-04-25T03:08:28;26.87;;;5.90;;
20810;SDS011;10566;52.928;10.522;2023-04-25T03:10:57;26.87;;;5.10;;
20810;SDS011;10566;52.928;10.522;2023-04-25T03:13:23;24.33;;;4.83;;
20810;SDS011;10566;52.928;10.522;2023-04-25T03:15:49;21.40;;;5.20;;
20810;SDS011;10566;52.928;10.522;2023-04-25T03:18:15;25.53;;;4.80;;
20810;SDS011;10566;52.928;10.522;2023-04-25T03:20:41;26.27;;;5.07;;
20810;SDS011;10566;52.928;10.522;2023-04-25T03:23:07;29.00;;;5.10;;
20810;SDS011;10566;52.928;10.522;2023-04-25T03:25:33;22.23;;;4.63;;
20810;SDS011;10566;52.928;10.522;2023-04-25T03:27:59;23.70;;;5.10;;
20810;SDS011;10566;52.928;10.522;2023-04-25T03:30:25;25.80;;;4.90;;
20810;SDS011;10566;52.928;10.522;2023-04-25T03:32:51;25.17;;;5.07;;
20810;SDS011;10566;52.928;10.522;2023-04-25T03:35:17;25.13;;;5.20;;
20810;SDS011;10566;52.928;10.522;2023-04-25T03:37:43;28.63;;;4.63;;
20810;SDS011;10566;52.928;10.522;2023-04-25T03:40:10;27.27;;;5.10;;
20810;SDS011;10566;52.928;10.522;2023-04-25T03:42:36;25.20;;;5.57;;
20810;SDS011;10566;52.928;10.522;2023-04-25T03:45:02;27.30;;;5.07;;
20810;SDS011;10566;52.928;10.522;2023-04-25T03:47:28;32.00;;;5.20;;
20810;SDS011;10566;52.928;10.522;2023-04-25T03:49:55;24.93;;;4.97;;
20810;SDS011;10566;52.928;10.522;2023-04-25T03:52:21;24.63;;;5.23;;
20810;SDS011;10566;52.928;10.522;2023-04-25T03:54:47;27.10;;;5.13;;
20810;SDS011;10566;52.928;10.522;2023-04-25T03:57:13;24.87;;;5.23;;
20810;SDS011;10566;52.928;10.522;2023-04-25T03:59:39;26.97;;;5.50;;
20810;SDS011;10566;52.928;10.522;2023-04-25T04:02:05;32.80;;;5.03;;
20810;SDS011;10566;52.928;10.522;2023-04-25T04:04:31;28.67;;;4.77;;
20810;SDS011;10566;52.928;10.522;2023-04-25T04:06:57;21.23;;;4.87;;
20810;SDS011;10566;52.928;10.522;2023-04-25T04:09:23;33.63;;;6.00;;
20810;SDS011;10566;52.928;10.522;2023-04-25T04:11:50;29.10;;;5.33;;
20810;SDS011;10566;52.928;10.522;2023-04-25T04:14:16;26.40;;;4.90;;
20810;SDS011;10566;52.928;10.522;2023-04-25T04:16:41;24.57;;;4.67;;
20810;SDS011;10566;52.928;10.522;2023-04-25T04:19:07;29.60;;;5.03;;
20810;SDS011;10566;52.928;10.522;2023-04-25T04:21:34;25.73;;;4.20;;
20810;SDS011;10566;52.928;10.522;2023-04-25T04:24:00;22.73;;;4.80;;
20810;SDS011;10566;52.928;10.522;2023-04-25T04:26:26;19.57;;;4.70;;
20810;SDS011;10566;52.928;10.522;2023-04-25T04:28:52;19.13;;;5.43;;
20810;SDS011;10566;52.928;10.522;2023-04-25T04:31:22;29.43;;;4.60;;
20810;SDS011;10566;52.928;10.522;2023-04-25T04:33:51;26.63;;;4.60;;
20810;SDS011;10566;52.928;10.522;2023-04-25T04:36:17;30.47;;;4.93;;
20810;SDS011;10566;52.928;10.522;2023-04-25T04:38:47;25.50;;;4.73;;
20810;SDS011;10566;52.928;10.522;2023-04-25T04:41:14;26.87;;;5.37;;
20810;SDS011;10566;52.928;10.522;2023-04-25T04:43:40;21.43;;;5.07;;
20810;SDS011;10566;52.928;10.522;2023-04-25T04:46:06;26.70;;;4.60;;
20810;SDS011;10566;52.928;10.522;2023-04-25T04:48:32;24.77;;;4.77;;
20810;SDS011;10566;52.928;10.522;2023-04-25T04:50:59;30.07;;;5.30;;
20810;SDS011;10566;52.928;10.522;2023-04-25T04:53:25;27.07;;;5.30;;
20810;SDS011;10566;52.928;10.522;2023-04-25T04:55:51;20.57;;;4.80;;
20810;SDS011;10566;52.928;10.522;2023-04-25T04:58:17;24.73;;;4.73;;
20810;SDS011;10566;52.928;10.522;2023-04-25T05:00:44;23.50;;;4.50;;
20810;SDS011;10566;52.928;10.522;2023-04-25T05:03:10;23.87;;;4.93;;
20810;SDS011;10566;52.928;10.522;2023-04-25T05:05:36;25.50;;;4.90;;
20810;SDS011;10566;52.928;10.522;2023-04-25T05:08:05;31.27;;;5.30;;
20810;SDS011;10566;52.928;10.522;2023-04-25T05:10:31;26.70;;;4.77;;
20810;SDS011;10566;52.928;10.522;2023-04-25T05:12:57;28.30;;;5.00;;
20810;SDS011;10566;52.928;10.522;2023-04-25T05:15:23;24.70;;;4.93;;
20810;SDS011;10566;52.928;10.522;2023-04-25T05:17:49;29.80;;;5.50;;
20810;SDS011;10566;52.928;10.522;2023-04-25T05:20:15;24.17;;;4.73;;
20810;SDS011;10566;52.928;10.522;2023-04-25T05:22:43;21.77;;;4.33;;
20810;SDS011;10566;52.928;10.522;2023-04-25T05:25:09;28.87;;;4.97;;
20810;SDS011;10566;52.928;10.522;2023-04-25T05:27:35;25.33;;;4.67;;
20810;SDS011;10566;52.928;10.522;2023-04-25T05:30:01;34.93;;;5.53;;
20810;SDS011;10566;52.928;10.522;2023-04-25T05:32:27;31.73;;;4.83;;
20810;SDS011;10566;52.928;10.522;2023-04-25T05:34:53;26.53;;;4.87;;
20810;SDS011;10566;52.928;10.522;2023-04-25T05:37:19;31.07;;;4.73;;
20810;SDS011;10566;52.928;10.522;2023-04-25T05:39:45;27.03;;;4.50;;
20810;SDS011;10566;52.928;10.522;2023-04-25T05:42:11;24.67;;;4.60;;
20810;SDS011;10566;52.928;10.522;2023-04-25T05:44:37;23.50;;;4.60;;
20810;SDS011;10566;52.928;10.522;2023-04-25T05:47:03;24.87;;;4.27;;
20810;SDS011;10566;52.928;10.522;2023-04-25T05:49:29;23.60;;;4.03;;
20810;SDS011;10566;52.928;10.522;2023-04-25T05:51:55;23.23;;;4.50;;
20810;SDS011;10566;52.928;10.522;2023-04-25T05:54:21;27.33;;;4.27;;
20810;SDS011;10566;52.928;10.522;2023-04-25T05:56:47;26.53;;;4.90;;
20810;SDS011;10566;52.928;10.522;2023-04-25T05:59:13;21.20;;;4.07;;
20810;SDS011;10566;52.928;10.522;2023-04-25T06:01:39;26.63;;;3.47;;
20810;SDS011;10566;52.928;10.522;2023-04-25T06:04:06;25.23;;;4.13;;
20810;SDS011;10566;52.928;10.522;2023-04-25T06:06:32;22.10;;;4.20;;
20810;SDS011;10566;52.928;10.522;2023-04-25T06:08:58;23.93;;;4.70;;
20810;SDS011;10566;52.928;10.522;2023-04-25T06:11:24;20.03;;;4.23;;
20810;SDS011;10566;52.928;10.522;2023-04-25T06:13:50;19.97;;;3.67;;
20810;SDS011;10566;52.928;10.522;2023-04-25T06:16:16;21.50;;;3.73;;
20810;SDS011;10566;52.928;10.522;2023-04-25T06:18:42;18.20;;;3.50;;
20810;SDS011;10566;52.928;10.522;2023-04-25T06:21:08;21.10;;;3.33;;
20810;SDS011;10566;52.928;10.522;2023-04-25T06:23:34;15.37;;;3.70;;
20810;SDS011;10566;52.928;10.522;2023-04-25T06:26:00;18.87;;;3.77;;
20810;SDS011;10566;52.928;10.522;2023-04-25T06:28:26;21.03;;;3.43;;
20810;SDS011;10566;52.928;10.522;2023-04-25T06:30:55;16.67;;;3.20;;
20810;SDS011;10566;52.928;10.522;2023-04-25T06:33:21;15.90;;;3.10;;
20810;SDS011;10566;52.928;10.522;2023-04-25T06:35:49;16.03;;;3.20;;
20810;SDS011;10566;52.928;10.522;2023-04-25T06:38:15;15.90;;;3.07;;
20810;SDS011;10566;52.928;10.522;2023-04-25T06:40:41;20.83;;;3.77;;
20810;SDS011;10566;52.928;10.522;2023-04-25T06:43:07;15.77;;;3.23;;
20810;SDS011;10566;52.928;10.522;2023-04-25T06:45:33;13.27;;;3.03;;
20810;SDS011;10566;52.928;10.522;2023-04-25T06:47:59;19.07;;;3.53;;
20810;SDS011;10566;52.928;10.522;2023-04-25T06:50:25;16.13;;;2.90;;
20810;SDS011;10566;52.928;10.522;2023-04-25T06:52:51;16.73;;;2.73;;
20810;SDS011;10566;52.928;10.522;2023-04-25T06:55:17;17.37;;;3.30;;
20810;SDS011;10566;52.928;10.522;2023-04-25T06:57:43;19.70;;;3.00;;
20810;SDS011;10566;52.928;10.522;2023-04-25T07:00:09;18.40;;;3.10;;
20810;SDS011;10566;52.928;10.522;2023-04-25T07:02:35;15.90;;;2.83;;
20810;SDS011;10566;52.928;10.522;2023-04-25T07:05:02;16.40;;;3.00;;
20810;SDS011;10566;52.928;10.522;2023-04-25T07:07:29;17.10;;;3.23;;
20810;SDS011;10566;52.928;10.522;2023-04-25T07:09:55;15.27;;;2.80;;
20810;SDS011;10566;52.928;10.522;2023-04-25T07:12:21;15.73;;;3.20;;
20810;SDS011;10566;52.928;10.522;2023-04-25T07:14:47;16.73;;;2.50;;
20810;SDS011;10566;52.928;10.522;2023-04-25T07:17:13;17.93;;;2.90;;
20810;SDS011;10566;52.928;10.522;2023-04-25T07:19:40;18.60;;;2.83;;
20810;SDS011;10566;52.928;10.522;2023-04-25T07:22:06;16.77;;;2.93;;
20810;SDS011;10566;52.928;10.522;2023-04-25T07:24:32;16.30;;;2.93;;
20810;SDS011;10566;52.928;10.522;2023-04-25T07:26:58;16.57;;;3.53;;
20810;SDS011;10566;52.928;10.522;2023-04-25T07:29:25;12.50;;;2.77;;
20810;SDS011;10566;52.928;10.522;2023-04-25T07:31:51;14.50;;;2.90;;
20810;SDS011;10566;52.928;10.522;2023-04-25T07:34:18;16.60;;;3.10;;
20810;SDS011;10566;52.928;10.522;2023-04-25T07:36:44;11.70;;;2.70;;
20810;SDS011;10566;52.928;10.522;2023-04-25T07:39:10;18.50;;;2.83;;
20810;SDS011;10566;52.928;10.522;2023-04-25T07:41:36;19.33;;;3.30;;
20810;SDS011;10566;52.928;10.522;2023-04-25T07:44:02;19.33;;;3.00;;
20810;SDS011;10566;52.928;10.522;2023-04-25T07:46:28;18.83;;;2.80;;
20810;SDS011;10566;52.928;10.522;2023-04-25T07:48:54;15.37;;;3.00;;
20810;SDS011;10566;52.928;10.522;2023-04-25T07:51:21;16.17;;;2.87;;
20810;SDS011;10566;52.928;10.522;2023-04-25T07:53:47;14.30;;;2.77;;
20810;SDS011;10566;52.928;10.522;2023-04-25T07:56:13;15.97;;;2.83;;
20810;SDS011;10566;52.928;10.522;2023-04-25T07:58:39;9.63;;;2.60;;
20810;SDS011;10566;52.928;10.522;2023-04-25T08:01:05;17.40;;;3.20;;
20810;SDS011;10566;52.928;10.522;2023-04-25T08:03:31;13.43;;;2.87;;
20810;SDS011;10566;52.928;10.522;2023-04-25T08:05:57;17.63;;;3.03;;
20810;SDS011;10566;52.928;10.522;2023-04-25T08:08:23;12.60;;;2.67;;
20810;SDS011;10566;52.928;10.522;2023-04-25T08:10:49;15.47;;;3.10;;
20810;SDS011;10566;52.928;10.522;2023-04-25T08:13:16;18.83;;;2.87;;
20810;SDS011;10566;52.928;10.522;2023-04-25T08:15:42;15.90;;;2.93;;
20810;SDS011;10566;52.928;10.522;2023-04-25T08:18:08;19.13;;;3.47;;
20810;SDS011;10566;52.928;10.522;2023-04-25T08:20:34;15.43;;;3.07;;
20810;SDS011;10566;52.928;10.522;2023-04-25T08:23:00;20.17;;;3.57;;
20810;SDS011;10566;52.928;10.522;2023-04-25T08:25:26;16.73;;;3.17;;
20810;SDS011;10566;52.928;10.522;2023-04-25T08:27:52;18.10;;;2.90;;
20810;SDS011;10566;52.928;10.522;2023-04-25T08:30:19;15.53;;;2.93;;
20810;SDS011;10566;52.928;10.522;2023-04-25T08:32:45;15.00;;;2.77;;
20810;SDS011;10566;52.928;10.522;2023-04-25T08:35:11;14.50;;;2.70;;
20810;SDS011;10566;52.928;10.522;2023-04-25T08:37:37;15.27;;;2.93;;
20810;SDS011;10566;52.928;10.522;2023-04-25T08:40:03;15.83;;;2.80;;
20810;SDS011;10566;52.928;10.522;2023-04-25T08:42:34;20.00;;;2.90;;
20810;SDS011;10566;52.928;10.522;2023-04-25T08:45:01;17.73;;;3.23;;
20810;SDS011;10566;52.928;10.522;2023-04-25T08:47:28;12.53;;;2.97;;
20810;SDS011;10566;52.928;10.522;2023-04-25T08:49:55;18.53;;;3.40;;
20810;SDS011;10566;52.928;10.522;2023-04-25T08:52:24;18.67;;;3.50;;
20810;SDS011;10566;52.928;10.522;2023-04-25T08:54:52;17.93;;;3.33;;
20810;SDS011;10566;52.928;10.522;2023-04-25T08:57:18;16.77;;;2.90;;
20810;SDS011;10566;52.928;10.522;2023-04-25T08:59:45;15.67;;;3.30;;
20810;SDS011;10566;52.928;10.522;2023-04-25T09:02:13;15.17;;;3.27;;
20810;SDS011;10566;52.928;10.522;2023-04-25T09:04:42;16.07;;;2.93;;
20810;SDS011;10566;52.928;10.522;2023-04-25T09:07:09;16.03;;;2.70;;
20810;SDS011;10566;52.928;10.522;2023-04-25T09:09:35;12.67;;;2.47;;
20810;SDS011;10566;52.928;10.522;2023-04-25T09:12:01;12.70;;;2.20;;
20810;SDS011;10566;52.928;10.522;2023-04-25T09:14:27;9.53;;;2.40;;
20810;SDS011;10566;52.928;10.522;2023-04-25T09:19:28;15.10;;;2.50;;
20810;SDS011;10566;52.928;10.522;2023-04-25T09:21:54;12.90;;;2.57;;
20810;SDS011;10566;52.928;10.522;2023-04-25T09:24:34;11.70;;;2.90;;
20810;SDS011;10566;52.928;10.522;2023-04-25T09:27:04;10.27;;;2.20;;
20810;SDS011;10566;52.928;10.522;2023-04-25T09:29:31;11.87;;;2.10;;
20810;SDS011;10566;52.928;10.522;2023-04-25T09:32:17;12.87;;;2.33;;
20810;SDS011;10566;52.928;10.522;2023-04-25T09:34:47;13.80;;;2.20;;
20810;SDS011;10566;52.928;10.522;2023-04-25T09:37:21;10.67;;;2.17;;
20810;SDS011;10566;52.928;10.522;2023-04-25T09:39:48;16.07;;;2.37;;
20810;SDS011;10566;52.928;10.522;2023-04-25T09:42:15;13.07;;;2.63;;
20810;SDS011;10566;52.928;10.522;2023-04-25T09:44:42;11.57;;;2.17;;
20810;SDS011;10566;52.928;10.522;2023-04-25T09:47:12;10.40;;;2.13;;
20810;SDS011;10566;52.928;10.522;2023-04-25T09:49:39;11.13;;;2.13;;
20810;SDS011;10566;52.928;10.522;2023-04-25T09:52:08;8.93;;;2.00;;
20810;SDS011;10566;52.928;10.522;2023-04-25T09:54:34;13.47;;;2.30;;
20810;SDS011;10566;52.928;10.522;2023-04-25T09:57:11;11.70;;;2.53;;
20810;SDS011;10566;52.928;10.522;2023-04-25T09:59:39;10.80;;;1.97;;
20810;SDS011;10566;52.928;10.522;2023-04-25T10:02:06;11.77;;;2.43;;
20810;SDS011;10566;52.928;10.522;2023-04-25T10:04:34;12.13;;;1.80;;
20810;SDS011;10566;52.928;10.522;2023-04-25T10:07:01;13.67;;;1.97;;
20810;SDS011;10566;52.928;10.522;2023-04-25T10:09:29;10.70;;;2.30;;
20810;SDS011;10566;52.928;10.522;2023-04-25T10:12:00;13.23;;;2.30;;
20810;SDS011;10566;52.928;10.522;2023-04-25T10:14:26;12.70;;;1.70;;
20810;SDS011;10566;52.928;10.522;2023-04-25T10:16:53;6.30;;;1.50;;
20810;SDS011;10566;52.928;10.522;2023-04-25T10:19:20;10.20;;;1.80;;
20810;SDS011;10566;52.928;10.522;2023-04-25T10:21:51;9.97;;;1.60;;
20810;SDS011;10566;52.928;10.522;2023-04-25T10:24:17;10.67;;;1.60;;
20810;SDS011;10566;52.928;10.522;2023-04-25T10:26:44;11.00;;;1.70;;
20810;SDS011;10566;52.928;10.522;2023-04-25T10:29:11;8.03;;;1.70;;
20810;SDS011;10566;52.928;10.522;2023-04-25T10:31:45;6.97;;;1.60;;
20810;SDS011;10566;52.928;10.522;2023-04-25T10:34:12;12.73;;;1.87;;
20810;SDS011;10566;52.928;10.522;2023-04-25T10:36:38;12.87;;;1.83;;
20810;SDS011;10566;52.928;10.522;2023-04-25T10:39:05;12.17;;;1.80;;
20810;SDS011;10566;52.928;10.522;2023-04-25T10:41:32;9.20;;;1.50;;
20810;SDS011;10566;52.928;10.522;2023-04-25T10:44:10;7.50;;;1.70;;
20810;SDS011;10566;52.928;10.522;2023-04-25T10:46:36;8.20;;;1.30;;
20810;SDS011;10566;52.928;10.522;2023-04-25T10:49:03;9.47;;;1.50;;
20810;SDS011;10566;52.928;10.522;2023-04-25T10:51:32;7.90;;;1.43;;
20810;SDS011;10566;52.928;10.522;2023-04-25T10:53:59;8.87;;;1.43;;
20810;SDS011;10566;52.928;10.522;2023-04-25T10:56:27;8.10;;;1.30;;
20810;SDS011;10566;52.928;10.522;2023-04-25T11:01:41;8.20;;;1.37;;
20810;SDS011;10566;52.928;10.522;2023-04-25T11:04:21;8.40;;;1.40;;
20810;SDS011;10566;52.928;10.522;2023-04-25T11:06:53;7.87;;;1.40;;
20810;SDS011;10566;52.928;10.522;2023-04-25T11:09:23;4.70;;;0.90;;
20810;SDS011;10566;52.928;10.522;2023-04-25T11:11:58;6.60;;;1.20;;
20810;SDS011;10566;52.928;10.522;2023-04-25T11:14:25;6.13;;;1.20;;
20810;SDS011;10566;52.928;10.522;2023-04-25T11:16:55;5.27;;;1.20;;
20810;SDS011;10566;52.928;10.522;2023-04-25T11:19:21;6.60;;;1.47;;
20810;SDS011;10566;52.928;10.522;2023-04-25T11:21:47;9.97;;;1.50;;
20810;SDS011;10566;52.928;10.522;2023-04-25T11:24:13;8.77;;;1.40;;
20810;SDS011;10566;52.928;10.522;2023-04-25T11:26:43;7.13;;;1.30;;
20810;SDS011;10566;52.928;10.522;2023-04-25T11:29:09;5.33;;;1.13;;
20810;SDS011;10566;52.928;10.522;2023-04-25T11:31:35;6.37;;;1.30;;
20810;SDS011;10566;52.928;10.522;2023-04-25T11:34:01;7.23;;;1.20;;
20810;SDS011;10566;52.928;10.522;2023-04-25T11:36:27;6.80;;;1.27;;
20810;SDS011;10566;52.928;10.522;2023-04-25T11:38:53;6.77;;;1.37;;
20810;SDS011;10566;52.928;10.522;2023-04-25T11:41:19;8.20;;;1.43;;
20810;SDS011;10566;52.928;10.522;2023-04-25T11:43:47;5.30;;;1.17;;
20810;SDS011;10566;52.928;10.522;2023-04-25T11:46:13;7.70;;;1.50;;
20810;SDS011;10566;52.928;10.522;2023-04-25T11:48:40;8.00;;;1.50;;
20810;SDS011;10566;52.928;10.522;2023-04-25T11:51:06;6.37;;;1.27;;
20810;SDS011;10566;52.928;10.522;2023-04-25T11:53:32;6.70;;;1.53;;
20810;SDS011;10566;52.928;10.522;2023-04-25T11:55:59;7.37;;;2.10;;
20810;SDS011;10566;52.928;10.522;2023-04-25T11:58:25;10.27;;;1.83;;
20810;SDS011;10566;52.928;10.522;2023-04-25T12:00:51;8.30;;;1.40;;
20810;SDS011;10566;52.928;10.522;2023-04-25T12:03:18;9.80;;;1.50;;
20810;SDS011;10566;52.928;10.522;2023-04-25T12:05:44;7.90;;;1.13;;
20810;SDS011;10566;52.928;10.522;2023-04-25T12:08:14;7.07;;;1.57;;
20810;SDS011;10566;52.928;10.522;2023-04-25T12:10:41;6.77;;;1.20;;
20810;SDS011;10566;52.928;10.522;2023-04-25T12:13:24;7.37;;;1.73;;
20810;SDS011;10566;52.928;10.522;2023-04-25T12:15:51;5.80;;;1.00;;
20810;SDS011;10566;52.928;10.522;2023-04-25T12:18:20;7.20;;;2.57;;
20810;SDS011;10566;52.928;10.522;2023-04-25T12:20:46;7.07;;;1.83;;
20810;SDS011;10566;52.928;10.522;2023-04-25T12:23:12;5.93;;;0.90;;
20810;SDS011;10566;52.928;10.522;2023-04-25T12:25:42;5.73;;;1.03;;
20810;SDS011;10566;52.928;10.522;2023-04-25T12:28:18;5.50;;;1.23;;
20810;SDS011;10566;52.928;10.522;2023-04-25T12:30:58;7.27;;;1.00;;
20810;SDS011;10566;52.928;10.522;2023-04-25T12:33:25;8.10;;;1.10;;
20810;SDS011;10566;52.928;10.522;2023-04-25T12:35:52;9.43;;;1.30;;
20810;SDS011;10566;52.928;10.522;2023-04-25T12:38:30;8.40;;;1.27;;
20810;SDS011;10566;52.928;10.522;2023-04-25T12:40:58;10.37;;;1.70;;
20810;SDS011;10566;52.928;10.522;2023-04-25T12:43:24;9.03;;;1.60;;
20810;SDS011;10566;52.928;10.522;2023-04-25T12:45:51;10.67;;;1.47;;
20810;SDS011;10566;52.928;10.522;2023-04-25T12:48:18;11.57;;;1.33;;
20810;SDS011;10566;52.928;10.522;2023-04-25T12:50:45;6.90;;;1.40;;
20810;SDS011;10566;52.928;10.522;2023-04-25T12:53:13;7.07;;;1.33;;
20810;SDS011;10566;52.928;10.522;2023-04-25T12:55:39;6.53;;;1.63;;
20810;SDS011;10566;52.928;10.522;2023-04-25T12:58:06;9.83;;;1.20;;
20810;SDS011;10566;52.928;10.522;2023-04-25T13:00:32;5.97;;;1.10;;
20810;SDS011;10566;52.928;10.522;2023-04-25T13:02:58;9.37;;;1.40;;
20810;SDS011;10566;52.928;10.522;2023-04-25T13:05:25;8.30;;;1.30;;
20810;SDS011;10566;52.928;10.522;2023-04-25T13:07:51;7.77;;;1.37;;
20810;SDS011;10566;52.928;10.522;2023-04-25T13:10:17;5.63;;;1.20;;
20810;SDS011;10566;52.928;10.522;2023-04-25T13:12:43;8.57;;;1.30;;
20810;SDS011;10566;52.928;10.522;2023-04-25T13:15:10;7.07;;;1.07;;
20810;SDS011;10566;52.928;10.522;2023-04-25T13:17:37;8.77;;;1.43;;
20810;SDS011;10566;52.928;10.522;2023-04-25T13:20:03;6.80;;;1.30;;
20810;SDS011;10566;52.928;10.522;2023-04-25T13:22:31;8.03;;;1.33;;
20810;SDS011;10566;52.928;10.522;2023-04-25T13:24:57;8.10;;;1.30;;
20810;SDS011;10566;52.928;10.522;2023-04-25T13:27:23;12.00;;;2.40;;
20810;SDS011;10566;52.928;10.522;2023-04-25T13:29:49;9.40;;;1.40;;
20810;SDS011;10566;52.928;10.522;2023-04-25T13:32:15;7.30;;;1.40;;
20810;SDS011;10566;52.928;10.522;2023-04-25T13:34:41;10.30;;;1.50;;
20810;SDS011;10566;52.928;10.522;2023-04-25T13:37:07;7.67;;;1.50;;
20810;SDS011;10566;52.928;10.522;2023-04-25T13:39:32;7.00;;;1.33;;
20810;SDS011;10566;52.928;10.522;2023-04-25T13:41:59;6.90;;;1.10;;
20810;SDS011;10566;52.928;10.522;2023-04-25T13:44:25;9.40;;;1.37;;
20810;SDS011;10566;52.928;10.522;2023-04-25T13:46:51;7.47;;;1.40;;
20810;SDS011;10566;52.928;10.522;2023-04-25T13:49:17;8.23;;;1.50;;
20810;SDS011;10566;52.928;10.522;2023-04-25T13:51:43;6.67;;;0.97;;
20810;SDS011;10566;52.928;10.522;2023-04-25T13:54:09;9.67;;;1.30;;
20810;SDS011;10566;52.928;10.522;2023-04-25T13:56:35;7.70;;;1.20;;
20810;SDS011;10566;52.928;10.522;2023-04-25T13:59:01;13.13;;;1.67;;
20810;SDS011;10566;52.928;10.522;2023-04-25T14:01:27;6.17;;;1.40;;
20810;SDS011;10566;52.928;10.522;2023-04-25T14:03:55;5.73;;;1.07;;
20810;SDS011;10566;52.928;10.522;2023-04-25T14:06:22;6.00;;;1.00;;
20810;SDS011;10566;52.928;10.522;2023-04-25T14:08:49;6.53;;;1.20;;
20810;SDS011;10566;52.928;10.522;2023-04-25T14:11:15;11.20;;;1.20;;
20810;SDS011;10566;52.928;10.522;2023-04-25T14:13:43;5.60;;;0.97;;
20810;SDS011;10566;52.928;10.522;2023-04-25T14:16:09;7.60;;;1.30;;
20810;SDS011;10566;52.928;10.522;2023-04-25T14:18:35;7.60;;;1.23;;
20810;SDS011;10566;52.928;10.522;2023-04-25T14:21:01;7.83;;;1.23;;
20810;SDS011;10566;52.928;10.522;2023-04-25T14:23:27;7.57;;;1.40;;
20810;SDS011;10566;52.928;10.522;2023-04-25T14:25:53;7.47;;;1.30;;